sensor_id;sensor_type;location;lat;lon;timestamp;P1;durP1;ratioP1;P2;durP2;ratioP2
22040;SDS011;11184;52.444;13.578;2022-10-31T00:02:22;33.33;;;25.90;;
22040;SDS011;11184;52.444;13.578;2022-10-31T00:05:06;31.13;;;23.98;;
22040;SDS011;11184;52.444;13.578;2022-10-31T00:07:52;29.52;;;25.63;;
22040;SDS011;11184;52.444;13.578;2022-10-31T00:10:37;28.60;;;25.45;;
22040;SDS011;11184;52.444;13.578;2022-10-31T00:13:22;28.45;;;24.30;;
22040;SDS011;11184;52.444;13.578;2022-10-31T00:16:12;34.38;;;26.45;;
22040;SDS011;11184;52.444;13.578;2022-10-31T00:18:58;30.17;;;25.83;;
22040;SDS011;11184;52.444;13.578;2022-10-31T00:21:43;32.22;;;23.92;;
22040;SDS011;11184;52.444;13.578;2022-10-31T00:24:28;33.22;;;23.90;;
22040;SDS011;11184;52.444;13.578;2022-10-31T00:27:13;35.80;;;26.40;;
22040;SDS011;11184;52.444;13.578;2022-10-31T00:29:57;28.55;;;23.58;;
22040;SDS011;11184;52.444;13.578;2022-10-31T00:32:42;31.63;;;24.30;;
22040;SDS011;11184;52.444;13.578;2022-10-31T00:35:27;29.45;;;24.65;;
22040;SDS011;11184;52.444;13.578;2022-10-31T00:38:11;32.88;;;23.58;;
22040;SDS011;11184;52.444;13.578;2022-10-31T00:40:56;29.23;;;23.77;;
22040;SDS011;11184;52.444;13.578;2022-10-31T00:43:41;33.95;;;26.33;;
22040;SDS011;11184;52.444;13.578;2022-10-31T00:46:26;29.08;;;24.67;;
22040;SDS011;11184;52.444;13.578;2022-10-31T00:49:10;31.50;;;25.52;;
22040;SDS011;11184;52.444;13.578;2022-10-31T00:51:56;29.55;;;26.05;;
22040;SDS011;11184;52.444;13.578;2022-10-31T00:54:40;31.10;;;25.50;;
22040;SDS011;11184;52.444;13.578;2022-10-31T00:57:25;35.05;;;22.40;;
22040;SDS011;11184;52.444;13.578;2022-10-31T01:00:10;27.13;;;24.15;;
22040;SDS011;11184;52.444;13.578;2022-10-31T01:02:55;31.48;;;23.25;;
22040;SDS011;11184;52.444;13.578;2022-10-31T01:05:40;27.38;;;23.60;;
22040;SDS011;11184;52.444;13.578;2022-10-31T01:08:25;32.80;;;23.63;;
22040;SDS011;11184;52.444;13.578;2022-10-31T01:11:11;32.55;;;24.88;;
22040;SDS011;11184;52.444;13.578;2022-10-31T01:13:56;29.17;;;23.08;;
22040;SDS011;11184;52.444;13.578;2022-10-31T01:16:41;28.90;;;23.83;;
22040;SDS011;11184;52.444;13.578;2022-10-31T01:19:25;32.03;;;24.50;;
22040;SDS011;11184;52.444;13.578;2022-10-31T01:22:10;32.70;;;24.45;;
22040;SDS011;11184;52.444;13.578;2022-10-31T01:24:54;31.50;;;22.85;;
22040;SDS011;11184;52.444;13.578;2022-10-31T01:27:39;29.20;;;22.77;;
22040;SDS011;11184;52.444;13.578;2022-10-31T01:30:24;36.10;;;24.98;;
22040;SDS011;11184;52.444;13.578;2022-10-31T01:33:08;30.13;;;25.30;;
22040;SDS011;11184;52.444;13.578;2022-10-31T01:35:53;26.58;;;23.85;;
22040;SDS011;11184;52.444;13.578;2022-10-31T01:38:38;29.80;;;25.15;;
22040;SDS011;11184;52.444;13.578;2022-10-31T01:41:24;30.15;;;25.90;;
22040;SDS011;11184;52.444;13.578;2022-10-31T01:47:08;34.60;;;23.67;;
22040;SDS011;11184;52.444;13.578;2022-10-31T01:49:57;29.23;;;22.65;;
22040;SDS011;11184;52.444;13.578;2022-10-31T01:52:44;25.20;;;22.65;;
22040;SDS011;11184;52.444;13.578;2022-10-31T01:55:32;25.45;;;22.40;;
22040;SDS011;11184;52.444;13.578;2022-10-31T01:58:19;36.88;;;26.73;;
22040;SDS011;11184;52.444;13.578;2022-10-31T02:01:04;33.60;;;25.52;;
22040;SDS011;11184;52.444;13.578;2022-10-31T02:03:49;30.17;;;26.15;;
22040;SDS011;11184;52.444;13.578;2022-10-31T02:06:37;27.58;;;23.10;;
22040;SDS011;11184;52.444;13.578;2022-10-31T02:09:23;29.23;;;23.77;;
22040;SDS011;11184;52.444;13.578;2022-10-31T02:12:08;31.50;;;25.25;;
22040;SDS011;11184;52.444;13.578;2022-10-31T02:14:54;30.80;;;25.80;;
22040;SDS011;11184;52.444;13.578;2022-10-31T02:17:38;32.08;;;24.00;;
22040;SDS011;11184;52.444;13.578;2022-10-31T02:20:24;33.38;;;25.25;;
22040;SDS011;11184;52.444;13.578;2022-10-31T02:31:46;32.13;;;25.27;;
22040;SDS011;11184;52.444;13.578;2022-10-31T02:37:44;30.15;;;23.63;;
22040;SDS011;11184;52.444;13.578;2022-10-31T02:40:35;32.67;;;24.48;;
22040;SDS011;11184;52.444;13.578;2022-10-31T02:43:26;26.45;;;22.67;;
22040;SDS011;11184;52.444;13.578;2022-10-31T02:48:57;30.65;;;23.27;;
22040;SDS011;11184;52.444;13.578;2022-10-31T02:51:44;29.85;;;24.27;;
22040;SDS011;11184;52.444;13.578;2022-10-31T02:54:30;29.40;;;21.80;;
22040;SDS011;11184;52.444;13.578;2022-10-31T02:57:16;29.83;;;24.10;;
22040;SDS011;11184;52.444;13.578;2022-10-31T03:00:05;31.73;;;22.80;;
22040;SDS011;11184;52.444;13.578;2022-10-31T03:03:14;35.30;;;24.00;;
22040;SDS011;11184;52.444;13.578;2022-10-31T03:06:03;29.92;;;24.20;;
22040;SDS011;11184;52.444;13.578;2022-10-31T03:11:44;27.20;;;23.05;;
22040;SDS011;11184;52.444;13.578;2022-10-31T03:14:41;36.63;;;25.60;;
22040;SDS011;11184;52.444;13.578;2022-10-31T03:17:27;28.65;;;24.52;;
22040;SDS011;11184;52.444;13.578;2022-10-31T03:20:15;33.83;;;25.45;;
22040;SDS011;11184;52.444;13.578;2022-10-31T03:23:01;35.78;;;25.02;;
22040;SDS011;11184;52.444;13.578;2022-10-31T03:25:47;31.08;;;24.05;;
22040;SDS011;11184;52.444;13.578;2022-10-31T03:28:46;40.95;;;26.35;;
22040;SDS011;11184;52.444;13.578;2022-10-31T03:31:35;29.95;;;24.17;;
22040;SDS011;11184;52.444;13.578;2022-10-31T03:34:21;32.92;;;24.45;;
22040;SDS011;11184;52.444;13.578;2022-10-31T03:37:06;31.13;;;23.98;;
22040;SDS011;11184;52.444;13.578;2022-10-31T03:39:52;30.40;;;24.08;;
22040;SDS011;11184;52.444;13.578;2022-10-31T03:42:39;31.75;;;22.02;;
22040;SDS011;11184;52.444;13.578;2022-10-31T03:45:25;29.67;;;23.33;;
22040;SDS011;11184;52.444;13.578;2022-10-31T03:48:11;28.17;;;23.40;;
22040;SDS011;11184;52.444;13.578;2022-10-31T03:51:04;30.80;;;21.50;;
22040;SDS011;11184;52.444;13.578;2022-10-31T03:53:56;31.33;;;22.65;;
22040;SDS011;11184;52.444;13.578;2022-10-31T03:56:45;24.48;;;21.98;;
22040;SDS011;11184;52.444;13.578;2022-10-31T04:02:36;38.95;;;22.92;;
22040;SDS011;11184;52.444;13.578;2022-10-31T04:05:22;31.58;;;22.35;;
22040;SDS011;11184;52.444;13.578;2022-10-31T04:08:09;33.85;;;25.55;;
22040;SDS011;11184;52.444;13.578;2022-10-31T04:10:54;32.78;;;23.70;;
22040;SDS011;11184;52.444;13.578;2022-10-31T04:13:40;24.95;;;21.77;;
22040;SDS011;11184;52.444;13.578;2022-10-31T04:16:26;24.13;;;20.67;;
22040;SDS011;11184;52.444;13.578;2022-10-31T04:19:12;23.23;;;19.83;;
22040;SDS011;11184;52.444;13.578;2022-10-31T04:21:57;27.23;;;22.17;;
22040;SDS011;11184;52.444;13.578;2022-10-31T04:24:41;26.65;;;19.55;;
22040;SDS011;11184;52.444;13.578;2022-10-31T04:27:26;27.70;;;21.67;;
22040;SDS011;11184;52.444;13.578;2022-10-31T04:30:11;37.50;;;23.95;;
22040;SDS011;11184;52.444;13.578;2022-10-31T04:32:56;31.48;;;22.02;;
22040;SDS011;11184;52.444;13.578;2022-10-31T04:35:40;24.55;;;20.75;;
22040;SDS011;11184;52.444;13.578;2022-10-31T04:38:25;26.88;;;20.90;;
22040;SDS011;11184;52.444;13.578;2022-10-31T04:41:09;26.00;;;22.77;;
22040;SDS011;11184;52.444;13.578;2022-10-31T04:43:54;26.08;;;20.52;;
22040;SDS011;11184;52.444;13.578;2022-10-31T04:46:38;27.83;;;22.95;;
22040;SDS011;11184;52.444;13.578;2022-10-31T04:49:23;28.98;;;23.38;;
22040;SDS011;11184;52.444;13.578;2022-10-31T04:52:07;29.92;;;23.02;;
22040;SDS011;11184;52.444;13.578;2022-10-31T04:54:52;30.77;;;22.50;;
22040;SDS011;11184;52.444;13.578;2022-10-31T04:57:47;25.48;;;22.42;;
22040;SDS011;11184;52.444;13.578;2022-10-31T05:00:32;26.95;;;21.30;;
22040;SDS011;11184;52.444;13.578;2022-10-31T05:03:16;30.90;;;23.50;;
22040;SDS011;11184;52.444;13.578;2022-10-31T05:06:01;32.88;;;21.02;;
22040;SDS011;11184;52.444;13.578;2022-10-31T05:08:45;33.40;;;22.88;;
22040;SDS011;11184;52.444;13.578;2022-10-31T05:11:30;27.27;;;23.05;;
22040;SDS011;11184;52.444;13.578;2022-10-31T05:14:15;28.17;;;21.27;;
22040;SDS011;11184;52.444;13.578;2022-10-31T05:16:59;29.25;;;21.63;;
22040;SDS011;11184;52.444;13.578;2022-10-31T05:19:44;33.83;;;22.77;;
22040;SDS011;11184;52.444;13.578;2022-10-31T05:22:28;28.35;;;22.73;;
22040;SDS011;11184;52.444;13.578;2022-10-31T05:25:13;29.45;;;25.10;;
22040;SDS011;11184;52.444;13.578;2022-10-31T05:27:58;27.08;;;23.30;;
22040;SDS011;11184;52.444;13.578;2022-10-31T05:30:42;33.72;;;22.33;;
22040;SDS011;11184;52.444;13.578;2022-10-31T05:33:27;40.85;;;26.08;;
22040;SDS011;11184;52.444;13.578;2022-10-31T05:36:12;27.77;;;22.77;;
22040;SDS011;11184;52.444;13.578;2022-10-31T05:38:56;40.42;;;24.23;;
22040;SDS011;11184;52.444;13.578;2022-10-31T05:41:41;32.67;;;22.67;;
22040;SDS011;11184;52.444;13.578;2022-10-31T05:44:25;31.23;;;23.40;;
22040;SDS011;11184;52.444;13.578;2022-10-31T05:47:10;30.85;;;24.33;;
22040;SDS011;11184;52.444;13.578;2022-10-31T05:49:55;33.92;;;21.58;;
22040;SDS011;11184;52.444;13.578;2022-10-31T05:52:39;27.10;;;21.77;;
22040;SDS011;11184;52.444;13.578;2022-10-31T05:55:24;41.63;;;25.25;;
22040;SDS011;11184;52.444;13.578;2022-10-31T05:58:09;27.40;;;22.10;;
22040;SDS011;11184;52.444;13.578;2022-10-31T06:00:54;40.55;;;25.30;;
22040;SDS011;11184;52.444;13.578;2022-10-31T06:03:38;31.30;;;23.30;;
22040;SDS011;11184;52.444;13.578;2022-10-31T06:06:23;30.63;;;24.40;;
22040;SDS011;11184;52.444;13.578;2022-10-31T06:09:08;34.70;;;23.05;;
22040;SDS011;11184;52.444;13.578;2022-10-31T06:11:52;32.50;;;24.45;;
22040;SDS011;11184;52.444;13.578;2022-10-31T06:14:37;33.38;;;25.70;;
22040;SDS011;11184;52.444;13.578;2022-10-31T06:17:21;43.90;;;24.88;;
22040;SDS011;11184;52.444;13.578;2022-10-31T06:20:06;31.42;;;23.95;;
22040;SDS011;11184;52.444;13.578;2022-10-31T06:22:51;33.45;;;24.63;;
22040;SDS011;11184;52.444;13.578;2022-10-31T06:25:36;30.08;;;24.83;;
22040;SDS011;11184;52.444;13.578;2022-10-31T06:28:20;34.45;;;23.33;;
22040;SDS011;11184;52.444;13.578;2022-10-31T06:31:05;40.80;;;25.83;;
22040;SDS011;11184;52.444;13.578;2022-10-31T06:33:50;35.97;;;26.27;;
22040;SDS011;11184;52.444;13.578;2022-10-31T06:36:34;34.80;;;25.08;;
22040;SDS011;11184;52.444;13.578;2022-10-31T06:39:19;34.05;;;25.27;;
22040;SDS011;11184;52.444;13.578;2022-10-31T06:42:04;38.05;;;26.45;;
22040;SDS011;11184;52.444;13.578;2022-10-31T06:44:49;40.25;;;25.70;;
22040;SDS011;11184;52.444;13.578;2022-10-31T06:47:33;37.47;;;24.20;;
22040;SDS011;11184;52.444;13.578;2022-10-31T06:50:19;44.20;;;26.08;;
22040;SDS011;11184;52.444;13.578;2022-10-31T06:53:03;37.35;;;26.13;;
22040;SDS011;11184;52.444;13.578;2022-10-31T06:55:48;37.72;;;25.58;;
22040;SDS011;11184;52.444;13.578;2022-10-31T06:58:32;45.60;;;25.63;;
22040;SDS011;11184;52.444;13.578;2022-10-31T07:01:17;37.45;;;24.45;;
22040;SDS011;11184;52.444;13.578;2022-10-31T07:04:02;38.10;;;26.02;;
22040;SDS011;11184;52.444;13.578;2022-10-31T07:06:46;34.13;;;26.77;;
22040;SDS011;11184;52.444;13.578;2022-10-31T07:09:31;37.92;;;26.90;;
22040;SDS011;11184;52.444;13.578;2022-10-31T07:12:15;34.50;;;26.73;;
22040;SDS011;11184;52.444;13.578;2022-10-31T07:15:00;40.97;;;26.85;;
22040;SDS011;11184;52.444;13.578;2022-10-31T07:17:44;32.25;;;25.90;;
22040;SDS011;11184;52.444;13.578;2022-10-31T07:20:30;45.03;;;27.63;;
22040;SDS011;11184;52.444;13.578;2022-10-31T07:23:14;46.60;;;28.00;;
22040;SDS011;11184;52.444;13.578;2022-10-31T07:25:59;40.75;;;27.42;;
22040;SDS011;11184;52.444;13.578;2022-10-31T07:28:45;42.72;;;28.27;;
22040;SDS011;11184;52.444;13.578;2022-10-31T07:31:30;42.35;;;28.42;;
22040;SDS011;11184;52.444;13.578;2022-10-31T07:34:16;40.15;;;26.55;;
22040;SDS011;11184;52.444;13.578;2022-10-31T07:37:00;44.88;;;26.98;;
22040;SDS011;11184;52.444;13.578;2022-10-31T07:39:45;40.70;;;26.73;;
22040;SDS011;11184;52.444;13.578;2022-10-31T07:42:33;38.10;;;27.23;;
22040;SDS011;11184;52.444;13.578;2022-10-31T07:45:19;41.33;;;29.75;;
22040;SDS011;11184;52.444;13.578;2022-10-31T07:48:04;40.97;;;27.70;;
22040;SDS011;11184;52.444;13.578;2022-10-31T07:50:49;31.90;;;26.73;;
22040;SDS011;11184;52.444;13.578;2022-10-31T07:53:33;40.40;;;28.45;;
22040;SDS011;11184;52.444;13.578;2022-10-31T07:56:18;40.10;;;27.10;;
22040;SDS011;11184;52.444;13.578;2022-10-31T07:59:02;32.03;;;25.27;;
22040;SDS011;11184;52.444;13.578;2022-10-31T08:01:47;34.13;;;24.92;;
22040;SDS011;11184;52.444;13.578;2022-10-31T08:04:32;37.00;;;26.52;;
22040;SDS011;11184;52.444;13.578;2022-10-31T08:07:16;38.67;;;24.67;;
22040;SDS011;11184;52.444;13.578;2022-10-31T08:10:01;32.00;;;22.75;;
22040;SDS011;11184;52.444;13.578;2022-10-31T08:12:45;33.05;;;22.65;;
22040;SDS011;11184;52.444;13.578;2022-10-31T08:15:30;33.03;;;23.42;;
22040;SDS011;11184;52.444;13.578;2022-10-31T08:18:15;35.28;;;23.73;;
22040;SDS011;11184;52.444;13.578;2022-10-31T08:21:00;29.77;;;23.27;;
22040;SDS011;11184;52.444;13.578;2022-10-31T08:23:45;39.75;;;23.52;;
22040;SDS011;11184;52.444;13.578;2022-10-31T08:26:29;24.85;;;21.65;;
22040;SDS011;11184;52.444;13.578;2022-10-31T08:29:14;30.00;;;22.15;;
22040;SDS011;11184;52.444;13.578;2022-10-31T08:31:59;30.65;;;21.60;;
22040;SDS011;11184;52.444;13.578;2022-10-31T08:34:43;29.35;;;20.95;;
22040;SDS011;11184;52.444;13.578;2022-10-31T08:37:28;30.92;;;22.77;;
22040;SDS011;11184;52.444;13.578;2022-10-31T08:40:12;31.98;;;23.10;;
22040;SDS011;11184;52.444;13.578;2022-10-31T08:43:01;27.23;;;20.88;;
22040;SDS011;11184;52.444;13.578;2022-10-31T08:45:48;27.63;;;22.13;;
22040;SDS011;11184;52.444;13.578;2022-10-31T08:48:33;34.13;;;22.48;;
22040;SDS011;11184;52.444;13.578;2022-10-31T08:51:17;35.67;;;23.25;;
22040;SDS011;11184;52.444;13.578;2022-10-31T08:54:02;32.50;;;22.33;;
22040;SDS011;11184;52.444;13.578;2022-10-31T08:56:47;29.92;;;24.02;;
22040;SDS011;11184;52.444;13.578;2022-10-31T08:59:32;29.88;;;23.08;;
22040;SDS011;11184;52.444;13.578;2022-10-31T09:02:16;37.28;;;23.38;;
22040;SDS011;11184;52.444;13.578;2022-10-31T09:05:01;36.00;;;26.83;;
22040;SDS011;11184;52.444;13.578;2022-10-31T09:07:45;37.88;;;28.20;;
22040;SDS011;11184;52.444;13.578;2022-10-31T09:10:30;41.72;;;27.70;;
22040;SDS011;11184;52.444;13.578;2022-10-31T09:13:16;40.83;;;25.95;;
22040;SDS011;11184;52.444;13.578;2022-10-31T09:16:01;36.08;;;27.10;;
22040;SDS011;11184;52.444;13.578;2022-10-31T09:18:46;39.90;;;29.08;;
22040;SDS011;11184;52.444;13.578;2022-10-31T09:21:31;38.50;;;28.27;;
22040;SDS011;11184;52.444;13.578;2022-10-31T09:24:15;38.53;;;28.67;;
22040;SDS011;11184;52.444;13.578;2022-10-31T09:27:00;43.78;;;29.23;;
22040;SDS011;11184;52.444;13.578;2022-10-31T09:29:44;48.85;;;28.45;;
22040;SDS011;11184;52.444;13.578;2022-10-31T09:32:29;36.42;;;27.30;;
22040;SDS011;11184;52.444;13.578;2022-10-31T09:35:14;46.03;;;29.58;;
22040;SDS011;11184;52.444;13.578;2022-10-31T09:38:01;43.50;;;27.50;;
22040;SDS011;11184;52.444;13.578;2022-10-31T09:40:47;43.05;;;30.17;;
22040;SDS011;11184;52.444;13.578;2022-10-31T09:43:48;52.13;;;33.03;;
22040;SDS011;11184;52.444;13.578;2022-10-31T09:49:51;51.97;;;31.48;;
22040;SDS011;11184;52.444;13.578;2022-10-31T09:52:38;46.00;;;31.27;;
22040;SDS011;11184;52.444;13.578;2022-10-31T09:55:27;40.55;;;30.13;;
22040;SDS011;11184;52.444;13.578;2022-10-31T09:58:15;43.95;;;29.42;;
22040;SDS011;11184;52.444;13.578;2022-10-31T10:01:01;40.80;;;26.90;;
22040;SDS011;11184;52.444;13.578;2022-10-31T10:03:47;38.45;;;26.75;;
22040;SDS011;11184;52.444;13.578;2022-10-31T10:06:34;37.13;;;27.08;;
22040;SDS011;11184;52.444;13.578;2022-10-31T10:09:21;38.85;;;27.83;;
22040;SDS011;11184;52.444;13.578;2022-10-31T10:15:35;39.47;;;28.83;;
22040;SDS011;11184;52.444;13.578;2022-10-31T10:21:16;36.92;;;27.98;;
22040;SDS011;11184;52.444;13.578;2022-10-31T10:24:49;43.70;;;27.98;;
22040;SDS011;11184;52.444;13.578;2022-10-31T10:27:15;46.65;;;30.13;;
22040;SDS011;11184;52.444;13.578;2022-10-31T10:30:02;57.17;;;29.77;;
22040;SDS011;11184;52.444;13.578;2022-10-31T10:32:59;42.97;;;29.42;;
22040;SDS011;11184;52.444;13.578;2022-10-31T10:35:49;40.28;;;31.90;;
22040;SDS011;11184;52.444;13.578;2022-10-31T10:38:37;47.53;;;30.52;;
22040;SDS011;11184;52.444;13.578;2022-10-31T10:41:23;39.92;;;29.73;;
22040;SDS011;11184;52.444;13.578;2022-10-31T10:44:08;44.38;;;30.40;;
22040;SDS011;11184;52.444;13.578;2022-10-31T10:46:55;45.22;;;30.25;;
22040;SDS011;11184;52.444;13.578;2022-10-31T10:50:02;44.70;;;28.85;;
22040;SDS011;11184;52.444;13.578;2022-10-31T10:52:52;45.88;;;28.92;;
22040;SDS011;11184;52.444;13.578;2022-10-31T10:58:34;45.53;;;28.10;;
22040;SDS011;11184;52.444;13.578;2022-10-31T11:01:21;44.47;;;30.00;;
22040;SDS011;11184;52.444;13.578;2022-10-31T11:04:50;48.38;;;30.60;;
22040;SDS011;11184;52.444;13.578;2022-10-31T11:07:14;42.17;;;29.15;;
22040;SDS011;11184;52.444;13.578;2022-10-31T11:10:03;43.58;;;28.88;;
22040;SDS011;11184;52.444;13.578;2022-10-31T11:13:17;41.80;;;28.15;;
22040;SDS011;11184;52.444;13.578;2022-10-31T11:16:48;38.78;;;29.65;;
22040;SDS011;11184;52.444;13.578;2022-10-31T11:22:14;43.70;;;30.67;;
22040;SDS011;11184;52.444;13.578;2022-10-31T11:25:00;45.75;;;29.15;;
22040;SDS011;11184;52.444;13.578;2022-10-31T11:27:45;39.67;;;31.20;;
22040;SDS011;11184;52.444;13.578;2022-10-31T11:30:30;46.13;;;29.92;;
22040;SDS011;11184;52.444;13.578;2022-10-31T11:33:30;45.95;;;28.67;;
22040;SDS011;11184;52.444;13.578;2022-10-31T11:36:24;37.08;;;28.77;;
22040;SDS011;11184;52.444;13.578;2022-10-31T11:39:15;47.50;;;28.90;;
22040;SDS011;11184;52.444;13.578;2022-10-31T11:42:01;51.95;;;30.70;;
22040;SDS011;11184;52.444;13.578;2022-10-31T11:44:46;36.15;;;28.50;;
22040;SDS011;11184;52.444;13.578;2022-10-31T11:47:31;43.40;;;29.33;;
22040;SDS011;11184;52.444;13.578;2022-10-31T11:50:23;48.45;;;30.05;;
22040;SDS011;11184;52.444;13.578;2022-10-31T11:53:13;35.78;;;30.42;;
22040;SDS011;11184;52.444;13.578;2022-10-31T11:56:03;46.83;;;29.95;;
22040;SDS011;11184;52.444;13.578;2022-10-31T11:59:02;39.20;;;26.98;;
22040;SDS011;11184;52.444;13.578;2022-10-31T12:01:47;41.95;;;28.85;;
22040;SDS011;11184;52.444;13.578;2022-10-31T12:04:43;33.85;;;27.45;;
22040;SDS011;11184;52.444;13.578;2022-10-31T12:07:29;38.42;;;27.65;;
22040;SDS011;11184;52.444;13.578;2022-10-31T12:10:15;35.78;;;25.70;;
22040;SDS011;11184;52.444;13.578;2022-10-31T12:19:03;28.17;;;24.88;;
22040;SDS011;11184;52.444;13.578;2022-10-31T12:21:56;46.53;;;26.15;;
22040;SDS011;11184;52.444;13.578;2022-10-31T12:24:47;38.10;;;26.60;;
22040;SDS011;11184;52.444;13.578;2022-10-31T12:33:28;45.67;;;26.98;;
22040;SDS011;11184;52.444;13.578;2022-10-31T12:36:27;49.03;;;29.85;;
22040;SDS011;11184;52.444;13.578;2022-10-31T12:39:17;42.58;;;27.63;;
22040;SDS011;11184;52.444;13.578;2022-10-31T12:48:25;45.17;;;26.15;;
22040;SDS011;11184;52.444;13.578;2022-10-31T12:57:01;35.47;;;26.88;;
22040;SDS011;11184;52.444;13.578;2022-10-31T12:59:49;41.80;;;27.00;;
22040;SDS011;11184;52.444;13.578;2022-10-31T13:02:38;38.22;;;27.48;;
22040;SDS011;11184;52.444;13.578;2022-10-31T13:05:27;47.40;;;29.40;;
22040;SDS011;11184;52.444;13.578;2022-10-31T13:08:15;39.72;;;28.40;;
22040;SDS011;11184;52.444;13.578;2022-10-31T13:13:57;51.17;;;27.80;;
22040;SDS011;11184;52.444;13.578;2022-10-31T13:16:43;50.97;;;29.80;;
22040;SDS011;11184;52.444;13.578;2022-10-31T13:22:17;42.00;;;29.13;;
22040;SDS011;11184;52.444;13.578;2022-10-31T13:25:09;44.75;;;29.88;;
22040;SDS011;11184;52.444;13.578;2022-10-31T13:27:59;41.25;;;28.88;;
22040;SDS011;11184;52.444;13.578;2022-10-31T13:30:45;46.10;;;29.48;;
22040;SDS011;11184;52.444;13.578;2022-10-31T13:33:32;43.95;;;29.20;;
22040;SDS011;11184;52.444;13.578;2022-10-31T13:36:26;50.45;;;30.65;;
22040;SDS011;11184;52.444;13.578;2022-10-31T13:42:11;45.75;;;30.52;;
22040;SDS011;11184;52.444;13.578;2022-10-31T13:45:14;42.05;;;29.40;;
22040;SDS011;11184;52.444;13.578;2022-10-31T13:48:00;42.20;;;30.27;;
22040;SDS011;11184;52.444;13.578;2022-10-31T13:50:58;48.15;;;29.95;;
22040;SDS011;11184;52.444;13.578;2022-10-31T13:56:34;39.63;;;30.33;;
22040;SDS011;11184;52.444;13.578;2022-10-31T13:59:20;43.13;;;32.10;;
22040;SDS011;11184;52.444;13.578;2022-10-31T14:02:16;49.45;;;30.23;;
22040;SDS011;11184;52.444;13.578;2022-10-31T14:05:02;38.65;;;29.67;;
22040;SDS011;11184;52.444;13.578;2022-10-31T14:07:48;43.80;;;32.00;;
22040;SDS011;11184;52.444;13.578;2022-10-31T14:10:37;44.65;;;29.95;;
22040;SDS011;11184;52.444;13.578;2022-10-31T14:13:35;47.53;;;29.48;;
22040;SDS011;11184;52.444;13.578;2022-10-31T14:16:25;40.47;;;28.10;;
22040;SDS011;11184;52.444;13.578;2022-10-31T14:19:15;47.17;;;32.10;;
22040;SDS011;11184;52.444;13.578;2022-10-31T14:22:01;51.97;;;31.10;;
22040;SDS011;11184;52.444;13.578;2022-10-31T14:24:45;56.08;;;32.38;;
22040;SDS011;11184;52.444;13.578;2022-10-31T14:27:32;55.45;;;32.47;;
22040;SDS011;11184;52.444;13.578;2022-10-31T14:30:22;47.03;;;30.05;;
22040;SDS011;11184;52.444;13.578;2022-10-31T14:33:18;50.85;;;31.25;;
22040;SDS011;11184;52.444;13.578;2022-10-31T14:36:07;50.33;;;30.25;;
22040;SDS011;11184;52.444;13.578;2022-10-31T14:39:02;49.47;;;30.45;;
22040;SDS011;11184;52.444;13.578;2022-10-31T14:42:01;42.55;;;31.63;;
22040;SDS011;11184;52.444;13.578;2022-10-31T14:44:54;53.13;;;30.63;;
22040;SDS011;11184;52.444;13.578;2022-10-31T14:47:45;49.05;;;32.20;;
22040;SDS011;11184;52.444;13.578;2022-10-31T14:50:50;45.58;;;32.92;;
22040;SDS011;11184;52.444;13.578;2022-10-31T14:53:39;46.67;;;33.03;;
22040;SDS011;11184;52.444;13.578;2022-10-31T14:56:27;51.17;;;32.00;;
22040;SDS011;11184;52.444;13.578;2022-10-31T14:59:13;57.72;;;34.47;;
22040;SDS011;11184;52.444;13.578;2022-10-31T15:02:00;48.58;;;31.27;;
22040;SDS011;11184;52.444;13.578;2022-10-31T15:04:46;56.28;;;33.50;;
22040;SDS011;11184;52.444;13.578;2022-10-31T15:07:31;49.65;;;32.10;;
22040;SDS011;11184;52.444;13.578;2022-10-31T15:10:22;47.15;;;32.35;;
22040;SDS011;11184;52.444;13.578;2022-10-31T15:13:15;44.15;;;32.17;;
22040;SDS011;11184;52.444;13.578;2022-10-31T15:16:02;57.05;;;31.65;;
22040;SDS011;11184;52.444;13.578;2022-10-31T15:18:52;52.72;;;30.40;;
22040;SDS011;11184;52.444;13.578;2022-10-31T15:21:39;47.53;;;31.42;;
22040;SDS011;11184;52.444;13.578;2022-10-31T15:24:36;47.85;;;30.50;;
22040;SDS011;11184;52.444;13.578;2022-10-31T15:27:22;52.80;;;31.98;;
22040;SDS011;11184;52.444;13.578;2022-10-31T15:30:21;48.42;;;31.83;;
22040;SDS011;11184;52.444;13.578;2022-10-31T15:33:20;51.00;;;32.95;;
22040;SDS011;11184;52.444;13.578;2022-10-31T15:36:16;52.55;;;32.25;;
22040;SDS011;11184;52.444;13.578;2022-10-31T15:39:02;44.72;;;30.67;;
22040;SDS011;11184;52.444;13.578;2022-10-31T15:44:33;40.95;;;32.22;;
22040;SDS011;11184;52.444;13.578;2022-10-31T15:47:19;52.13;;;32.55;;
22040;SDS011;11184;52.444;13.578;2022-10-31T15:50:06;55.08;;;31.90;;
22040;SDS011;11184;52.444;13.578;2022-10-31T15:53:02;49.97;;;32.92;;
22040;SDS011;11184;52.444;13.578;2022-10-31T15:55:57;50.70;;;34.28;;
22040;SDS011;11184;52.444;13.578;2022-10-31T15:58:44;58.30;;;33.95;;
22040;SDS011;11184;52.444;13.578;2022-10-31T16:01:30;55.03;;;34.03;;
22040;SDS011;11184;52.444;13.578;2022-10-31T16:07:13;61.35;;;38.00;;
22040;SDS011;11184;52.444;13.578;2022-10-31T16:09:59;62.38;;;38.80;;
22040;SDS011;11184;52.444;13.578;2022-10-31T16:12:45;59.75;;;39.13;;
22040;SDS011;11184;52.444;13.578;2022-10-31T16:15:30;57.58;;;40.42;;
22040;SDS011;11184;52.444;13.578;2022-10-31T16:18:16;57.80;;;37.95;;
22040;SDS011;11184;52.444;13.578;2022-10-31T16:21:01;64.20;;;39.55;;
22040;SDS011;11184;52.444;13.578;2022-10-31T16:23:47;71.50;;;42.88;;
22040;SDS011;11184;52.444;13.578;2022-10-31T16:26:34;65.50;;;39.13;;
22040;SDS011;11184;52.444;13.578;2022-10-31T16:29:24;53.90;;;35.72;;
22040;SDS011;11184;52.444;13.578;2022-10-31T16:35:17;45.03;;;34.20;;
22040;SDS011;11184;52.444;13.578;2022-10-31T16:38:02;45.25;;;33.05;;
22040;SDS011;11184;52.444;13.578;2022-10-31T16:40:48;51.55;;;34.05;;
22040;SDS011;11184;52.444;13.578;2022-10-31T16:43:33;53.85;;;34.55;;
22040;SDS011;11184;52.444;13.578;2022-10-31T16:46:23;56.92;;;38.40;;
22040;SDS011;11184;52.444;13.578;2022-10-31T16:49:08;56.38;;;39.33;;
22040;SDS011;11184;52.444;13.578;2022-10-31T16:51:53;51.90;;;35.65;;
22040;SDS011;11184;52.444;13.578;2022-10-31T16:54:38;51.60;;;37.92;;
22040;SDS011;11184;52.444;13.578;2022-10-31T16:57:25;57.88;;;35.60;;
22040;SDS011;11184;52.444;13.578;2022-10-31T17:00:14;61.97;;;39.40;;
22040;SDS011;11184;52.444;13.578;2022-10-31T17:02:59;56.13;;;36.90;;
22040;SDS011;11184;52.444;13.578;2022-10-31T17:05:43;57.70;;;36.55;;
22040;SDS011;11184;52.444;13.578;2022-10-31T17:08:28;52.83;;;36.00;;
22040;SDS011;11184;52.444;13.578;2022-10-31T17:11:15;56.45;;;35.50;;
22040;SDS011;11184;52.444;13.578;2022-10-31T17:14:01;56.10;;;36.90;;
22040;SDS011;11184;52.444;13.578;2022-10-31T17:16:47;58.35;;;35.22;;
22040;SDS011;11184;52.444;13.578;2022-10-31T17:19:32;50.83;;;36.28;;
22040;SDS011;11184;52.444;13.578;2022-10-31T17:22:17;60.17;;;38.03;;
22040;SDS011;11184;52.444;13.578;2022-10-31T17:25:01;56.47;;;39.03;;
22040;SDS011;11184;52.444;13.578;2022-10-31T17:27:46;50.28;;;36.13;;